sensor_id;sensor_type;location;lat;lon;timestamp;pressure;altitude;pressure_sealevel;temperature;humidity
14117;BME280;7137;51.436;6.544;2022-08-21T00:01:26;101297.22;;;18.22;79.03
14117;BME280;7137;51.436;6.544;2022-08-21T00:04:29;101293.13;;;18.17;79.87
14117;BME280;7137;51.436;6.544;2022-08-21T00:07:30;101289.00;;;18.11;80.06
14117;BME280;7137;51.436;6.544;2022-08-21T00:10:33;101294.47;;;18.08;80.49
14117;BME280;7137;51.436;6.544;2022-08-21T00:13:35;101292.00;;;18.05;80.29
14117;BME280;7137;51.436;6.544;2022-08-21T00:16:38;101288.72;;;18.00;80.76
14117;BME280;7137;51.436;6.544;2022-08-21T00:19:39;101282.06;;;17.93;81.21
14117;BME280;7137;51.436;6.544;2022-08-21T00:22:41;101276.97;;;17.90;81.12
14117;BME280;7137;51.436;6.544;2022-08-21T00:25:44;101283.31;;;17.86;81.57
14117;BME280;7137;51.436;6.544;2022-08-21T00:28:46;101279.31;;;17.78;81.74
14117;BME280;7137;51.436;6.544;2022-08-21T00:31:50;101274.25;;;17.74;82.05
14117;BME280;7137;51.436;6.544;2022-08-21T00:34:53;101277.97;;;17.70;82.57
14117;BME280;7137;51.436;6.544;2022-08-21T00:37:55;101276.50;;;17.64;82.66
14117;BME280;7137;51.436;6.544;2022-08-21T00:41:00;101273.16;;;17.61;82.11
14117;BME280;7137;51.436;6.544;2022-08-21T00:44:02;101274.22;;;17.57;82.70
14117;BME280;7137;51.436;6.544;2022-08-21T00:47:05;101278.75;;;17.55;82.53
14117;BME280;7137;51.436;6.544;2022-08-21T00:50:10;101270.13;;;17.51;83.15
14117;BME280;7137;51.436;6.544;2022-08-21T00:53:13;101266.72;;;17.49;83.76
14117;BME280;7137;51.436;6.544;2022-08-21T00:56:14;101266.06;;;17.44;82.80
14117;BME280;7137;51.436;6.544;2022-08-21T00:59:16;101275.00;;;17.41;84.08
14117;BME280;7137;51.436;6.544;2022-08-21T01:02:20;101269.91;;;17.38;84.14
14117;BME280;7137;51.436;6.544;2022-08-21T01:05:22;101261.28;;;17.35;84.64
14117;BME280;7137;51.436;6.544;2022-08-21T01:08:25;101266.78;;;17.30;84.12
14117;BME280;7137;51.436;6.544;2022-08-21T01:11:27;101264.22;;;17.29;83.62
14117;BME280;7137;51.436;6.544;2022-08-21T01:14:29;101260.88;;;17.25;83.50
14117;BME280;7137;51.436;6.544;2022-08-21T01:17:33;101277.66;;;17.24;83.85
14117;BME280;7137;51.436;6.544;2022-08-21T01:20:36;101268.97;;;17.22;84.65
14117;BME280;7137;51.436;6.544;2022-08-21T01:23:41;101270.84;;;17.20;83.25
14117;BME280;7137;51.436;6.544;2022-08-21T01:26:44;101272.81;;;17.15;84.29
14117;BME280;7137;51.436;6.544;2022-08-21T01:29:51;101275.63;;;17.12;83.73
14117;BME280;7137;51.436;6.544;2022-08-21T01:32:55;101275.88;;;17.07;83.97
14117;BME280;7137;51.436;6.544;2022-08-21T01:35:56;101277.00;;;17.02;85.19
14117;BME280;7137;51.436;6.544;2022-08-21T01:38:59;101275.38;;;16.99;86.19
14117;BME280;7137;51.436;6.544;2022-08-21T01:42:01;101273.66;;;16.98;86.35
14117;BME280;7137;51.436;6.544;2022-08-21T01:45:05;101276.47;;;16.95;85.73
14117;BME280;7137;51.436;6.544;2022-08-21T01:52:38;101274.09;;;16.89;85.45
14117;BME280;7137;51.436;6.544;2022-08-21T01:55:41;101271.63;;;16.86;85.63
14117;BME280;7137;51.436;6.544;2022-08-21T01:58:46;101268.28;;;16.82;86.70
14117;BME280;7137;51.436;6.544;2022-08-21T02:01:47;101272.09;;;16.77;87.04
14117;BME280;7137;51.436;6.544;2022-08-21T02:04:49;101268.63;;;16.75;86.05
14117;BME280;7137;51.436;6.544;2022-08-21T02:07:52;101272.22;;;16.74;85.47
14117;BME280;7137;51.436;6.544;2022-08-21T02:10:55;101267.09;;;16.71;85.95
14117;BME280;7137;51.436;6.544;2022-08-21T02:13:57;101262.09;;;16.65;87.08
14117;BME280;7137;51.436;6.544;2022-08-21T02:16:59;101260.47;;;16.62;85.80
14117;BME280;7137;51.436;6.544;2022-08-21T02:20:00;101261.44;;;16.59;87.82
14117;BME280;7137;51.436;6.544;2022-08-21T02:23:02;101256.31;;;16.56;87.90
14117;BME280;7137;51.436;6.544;2022-08-21T02:26:08;101255.59;;;16.53;88.32
14117;BME280;7137;51.436;6.544;2022-08-21T02:29:09;101267.25;;;16.49;87.34
14117;BME280;7137;51.436;6.544;2022-08-21T02:32:11;101257.66;;;16.46;87.58
14117;BME280;7137;51.436;6.544;2022-08-21T02:35:13;101257.66;;;16.46;87.44
14117;BME280;7137;51.436;6.544;2022-08-21T02:38:19;101254.31;;;16.43;87.13
14117;BME280;7137;51.436;6.544;2022-08-21T02:41:23;101260.44;;;16.43;88.36
14117;BME280;7137;51.436;6.544;2022-08-21T02:44:25;101260.38;;;16.45;86.76
14117;BME280;7137;51.436;6.544;2022-08-21T02:47:27;101261.16;;;16.47;86.61
14117;BME280;7137;51.436;6.544;2022-08-21T02:50:31;101261.88;;;16.50;87.42
14117;BME280;7137;51.436;6.544;2022-08-21T02:53:33;101266.31;;;16.50;87.10
14117;BME280;7137;51.436;6.544;2022-08-21T02:56:36;101258.31;;;16.51;87.75
14117;BME280;7137;51.436;6.544;2022-08-21T02:59:38;101260.81;;;16.54;86.66
14117;BME280;7137;51.436;6.544;2022-08-21T03:02:40;101255.19;;;16.62;87.23
14117;BME280;7137;51.436;6.544;2022-08-21T03:05:43;101260.03;;;16.71;86.51
14117;BME280;7137;51.436;6.544;2022-08-21T03:08:44;101251.09;;;16.74;86.96
14117;BME280;7137;51.436;6.544;2022-08-21T03:11:47;101249.47;;;16.71;87.42
14117;BME280;7137;51.436;6.544;2022-08-21T03:14:49;101255.97;;;16.64;88.27
14117;BME280;7137;51.436;6.544;2022-08-21T03:17:50;101247.38;;;16.59;87.15
14117;BME280;7137;51.436;6.544;2022-08-21T03:20:54;101246.75;;;16.54;86.88
14117;BME280;7137;51.436;6.544;2022-08-21T03:23:56;101254.91;;;16.49;88.50
14117;BME280;7137;51.436;6.544;2022-08-21T03:26:59;101251.69;;;16.43;87.17
14117;BME280;7137;51.436;6.544;2022-08-21T03:30:00;101244.06;;;16.37;87.36
14117;BME280;7137;51.436;6.544;2022-08-21T03:33:02;101238.16;;;16.31;88.81
14117;BME280;7137;51.436;6.544;2022-08-21T03:36:06;101245.19;;;16.31;89.69
14117;BME280;7137;51.436;6.544;2022-08-21T03:39:08;101251.56;;;16.27;88.08
14117;BME280;7137;51.436;6.544;2022-08-21T03:42:11;101249.91;;;16.24;89.32
14117;BME280;7137;51.436;6.544;2022-08-21T03:45:13;101253.63;;;16.20;89.15
14117;BME280;7137;51.436;6.544;2022-08-21T03:48:16;101245.81;;;16.19;90.32
14117;BME280;7137;51.436;6.544;2022-08-21T03:51:18;101246.75;;;16.16;90.02
14117;BME280;7137;51.436;6.544;2022-08-21T03:54:19;101246.06;;;16.13;88.99
14117;BME280;7137;51.436;6.544;2022-08-21T03:57:22;101246.22;;;16.10;89.48
14117;BME280;7137;51.436;6.544;2022-08-21T04:00:24;101252.47;;;16.07;89.73
14117;BME280;7137;51.436;6.544;2022-08-21T04:03:27;101254.44;;;16.02;89.65
14117;BME280;7137;51.436;6.544;2022-08-21T04:06:29;101254.53;;;16.00;90.06
14117;BME280;7137;51.436;6.544;2022-08-21T04:09:30;101258.00;;;16.01;91.16
14117;BME280;7137;51.436;6.544;2022-08-21T04:12:33;101257.94;;;16.02;90.96
14117;BME280;7137;51.436;6.544;2022-08-21T04:15:36;101262.81;;;16.12;89.43
14117;BME280;7137;51.436;6.544;2022-08-21T04:18:37;101261.72;;;16.16;90.33
14117;BME280;7137;51.436;6.544;2022-08-21T04:21:39;101259.03;;;16.17;90.28
14117;BME280;7137;51.436;6.544;2022-08-21T04:24:41;101265.09;;;16.19;90.49
14117;BME280;7137;51.436;6.544;2022-08-21T04:27:44;101256.34;;;16.19;89.13
14117;BME280;7137;51.436;6.544;2022-08-21T04:30:46;101259.94;;;16.16;90.85
14117;BME280;7137;51.436;6.544;2022-08-21T04:33:48;101263.31;;;16.20;88.13
14117;BME280;7137;51.436;6.544;2022-08-21T04:36:49;101267.59;;;16.22;89.06
14117;BME280;7137;51.436;6.544;2022-08-21T04:39:51;101265.88;;;16.21;89.58
14117;BME280;7137;51.436;6.544;2022-08-21T04:42:56;101259.88;;;16.18;89.13
14117;BME280;7137;51.436;6.544;2022-08-21T04:45:58;101262.72;;;16.13;89.97
14117;BME280;7137;51.436;6.544;2022-08-21T04:49:00;101263.59;;;16.14;89.32
14117;BME280;7137;51.436;6.544;2022-08-21T04:52:02;101267.22;;;16.11;89.39
14117;BME280;7137;51.436;6.544;2022-08-21T04:55:05;101269.16;;;16.08;90.38
14117;BME280;7137;51.436;6.544;2022-08-21T04:58:11;101263.88;;;16.08;89.76
14117;BME280;7137;51.436;6.544;2022-08-21T05:01:21;101275.19;;;16.10;88.54
14117;BME280;7137;51.436;6.544;2022-08-21T05:04:26;101271.50;;;16.14;88.93
14117;BME280;7137;51.436;6.544;2022-08-21T05:07:30;101278.47;;;16.15;90.26
14117;BME280;7137;51.436;6.544;2022-08-21T05:10:32;101270.38;;;16.19;89.67
14117;BME280;7137;51.436;6.544;2022-08-21T05:13:36;101273.56;;;16.26;89.25
14117;BME280;7137;51.436;6.544;2022-08-21T05:16:37;101281.25;;;16.30;88.27
14117;BME280;7137;51.436;6.544;2022-08-21T05:19:39;101286.13;;;16.40;88.09
14117;BME280;7137;51.436;6.544;2022-08-21T05:22:41;101282.31;;;16.45;88.29
14117;BME280;7137;51.436;6.544;2022-08-21T05:25:42;101288.41;;;16.47;88.03
14117;BME280;7137;51.436;6.544;2022-08-21T05:28:45;101287.78;;;16.61;86.72
14117;BME280;7137;51.436;6.544;2022-08-21T05:31:47;101281.41;;;16.65;85.37
14117;BME280;7137;51.436;6.544;2022-08-21T05:34:49;101286.59;;;16.67;85.40
14117;BME280;7137;51.436;6.544;2022-08-21T05:37:51;101283.50;;;16.77;86.16
14117;BME280;7137;51.436;6.544;2022-08-21T05:40:52;101282.41;;;16.81;84.71
14117;BME280;7137;51.436;6.544;2022-08-21T05:43:55;101278.59;;;16.87;84.02
14117;BME280;7137;51.436;6.544;2022-08-21T05:47:02;101278.50;;;16.71;85.29
14117;BME280;7137;51.436;6.544;2022-08-21T05:50:05;101278.41;;;16.54;85.42
14117;BME280;7137;51.436;6.544;2022-08-21T05:53:06;101275.84;;;16.71;85.29
14117;BME280;7137;51.436;6.544;2022-08-21T05:56:08;101281.44;;;17.01;84.45
14117;BME280;7137;51.436;6.544;2022-08-21T05:59:12;101283.56;;;17.12;83.35
14117;BME280;7137;51.436;6.544;2022-08-21T06:02:13;101282.63;;;17.30;82.96
14117;BME280;7137;51.436;6.544;2022-08-21T06:05:15;101285.50;;;17.43;81.88
14117;BME280;7137;51.436;6.544;2022-08-21T06:08:17;101286.91;;;17.50;80.88
14117;BME280;7137;51.436;6.544;2022-08-21T06:11:19;101282.72;;;17.63;81.40
14117;BME280;7137;51.436;6.544;2022-08-21T06:14:25;101285.34;;;17.63;81.34
14117;BME280;7137;51.436;6.544;2022-08-21T06:17:27;101289.56;;;18.18;78.52
14117;BME280;7137;51.436;6.544;2022-08-21T06:20:28;101288.56;;;18.83;76.73
14117;BME280;7137;51.436;6.544;2022-08-21T06:23:30;101290.44;;;20.44;71.85
14117;BME280;7137;51.436;6.544;2022-08-21T06:26:32;101293.56;;;23.54;58.40
14117;BME280;7137;51.436;6.544;2022-08-21T06:29:35;101307.41;;;25.58;50.32
14117;BME280;7137;51.436;6.544;2022-08-21T06:32:38;101312.53;;;27.50;46.71
14117;BME280;7137;51.436;6.544;2022-08-21T06:35:39;101316.06;;;27.70;43.62
14117;BME280;7137;51.436;6.544;2022-08-21T06:38:41;101315.97;;;28.74;41.81
14117;BME280;7137;51.436;6.544;2022-08-21T06:41:42;101321.19;;;28.75;41.41
14117;BME280;7137;51.436;6.544;2022-08-21T06:44:46;101315.56;;;30.35;38.43
14117;BME280;7137;51.436;6.544;2022-08-21T06:47:48;101327.34;;;31.43;36.09
14117;BME280;7137;51.436;6.544;2022-08-21T06:50:50;101324.75;;;31.09;35.77
14117;BME280;7137;51.436;6.544;2022-08-21T06:53:51;101325.94;;;31.15;36.23
14117;BME280;7137;51.436;6.544;2022-08-21T06:56:53;101316.16;;;31.38;36.33
14117;BME280;7137;51.436;6.544;2022-08-21T06:59:56;101319.88;;;31.61;35.87
14117;BME280;7137;51.436;6.544;2022-08-21T07:02:58;101321.25;;;31.41;35.78
14117;BME280;7137;51.436;6.544;2022-08-21T07:06:00;101318.50;;;31.17;36.72
14117;BME280;7137;51.436;6.544;2022-08-21T07:09:02;101318.41;;;32.31;34.73
14117;BME280;7137;51.436;6.544;2022-08-21T07:12:04;101311.13;;;32.23;32.98
14117;BME280;7137;51.436;6.544;2022-08-21T07:15:09;101309.16;;;33.33;32.55
14117;BME280;7137;51.436;6.544;2022-08-21T07:18:10;101325.63;;;34.72;30.69
14117;BME280;7137;51.436;6.544;2022-08-21T07:21:13;101315.78;;;35.29;29.23
14117;BME280;7137;51.436;6.544;2022-08-21T07:24:14;101325.00;;;35.06;29.68
14117;BME280;7137;51.436;6.544;2022-08-21T07:27:16;101321.22;;;34.86;29.81
14117;BME280;7137;51.436;6.544;2022-08-21T07:30:19;101318.31;;;33.55;31.21
14117;BME280;7137;51.436;6.544;2022-08-21T07:33:20;101309.38;;;33.84;30.64
14117;BME280;7137;51.436;6.544;2022-08-21T07:36:22;101312.59;;;33.04;32.96
14117;BME280;7137;51.436;6.544;2022-08-21T07:39:24;101306.03;;;31.65;34.10
14117;BME280;7137;51.436;6.544;2022-08-21T07:42:25;101310.88;;;31.94;33.43
14117;BME280;7137;51.436;6.544;2022-08-21T07:45:32;101306.34;;;30.88;34.95
14117;BME280;7137;51.436;6.544;2022-08-21T07:48:34;101303.66;;;31.70;34.09
14117;BME280;7137;51.436;6.544;2022-08-21T07:51:35;101303.28;;;32.84;32.91
14117;BME280;7137;51.436;6.544;2022-08-21T07:54:37;101304.75;;;33.40;32.20
14117;BME280;7137;51.436;6.544;2022-08-21T07:57:39;101298.09;;;32.35;32.54
14117;BME280;7137;51.436;6.544;2022-08-21T08:00:41;101303.91;;;33.40;32.12
14117;BME280;7137;51.436;6.544;2022-08-21T08:03:43;101299.19;;;32.88;31.28
14117;BME280;7137;51.436;6.544;2022-08-21T08:06:45;101281.28;;;32.08;33.70
14117;BME280;7137;51.436;6.544;2022-08-21T08:09:46;101296.91;;;32.37;32.58
14117;BME280;7137;51.436;6.544;2022-08-21T08:12:49;101284.81;;;32.79;31.93
14117;BME280;7137;51.436;6.544;2022-08-21T08:15:52;101286.34;;;33.27;32.13
14117;BME280;7137;51.436;6.544;2022-08-21T08:18:54;101298.56;;;34.13;31.46
14117;BME280;7137;51.436;6.544;2022-08-21T08:21:56;101284.97;;;35.43;29.19
14117;BME280;7137;51.436;6.544;2022-08-21T08:24:57;101284.13;;;33.54;31.78
14117;BME280;7137;51.436;6.544;2022-08-21T08:27:59;101300.72;;;35.05;28.57
14117;BME280;7137;51.436;6.544;2022-08-21T08:31:02;101288.34;;;33.33;31.19
14117;BME280;7137;51.436;6.544;2022-08-21T08:34:04;101275.50;;;32.28;33.00
14117;BME280;7137;51.436;6.544;2022-08-21T08:37:06;101276.75;;;32.01;32.30
14117;BME280;7137;51.436;6.544;2022-08-21T08:40:11;101278.19;;;30.99;34.19
14117;BME280;7137;51.436;6.544;2022-08-21T08:43:14;101278.66;;;31.11;34.75
14117;BME280;7137;51.436;6.544;2022-08-21T08:46:19;101270.59;;;28.61;37.76
14117;BME280;7137;51.436;6.544;2022-08-21T08:49:24;101276.69;;;29.78;37.53
14117;BME280;7137;51.436;6.544;2022-08-21T08:52:30;101274.81;;;31.54;33.96
14117;BME280;7137;51.436;6.544;2022-08-21T08:55:35;101278.50;;;32.64;32.54
14117;BME280;7137;51.436;6.544;2022-08-21T08:58:40;101280.66;;;33.60;30.93
14117;BME280;7137;51.436;6.544;2022-08-21T09:01:44;101283.81;;;33.49;30.93
14117;BME280;7137;51.436;6.544;2022-08-21T09:04:47;101281.63;;;33.82;29.75
14117;BME280;7137;51.436;6.544;2022-08-21T09:07:57;101272.34;;;37.27;25.94
14117;BME280;7137;51.436;6.544;2022-08-21T09:11:04;101269.38;;;38.84;24.79
14117;BME280;7137;51.436;6.544;2022-08-21T09:14:16;101274.16;;;40.43;22.43
14117;BME280;7137;51.436;6.544;2022-08-21T09:17:39;101275.47;;;38.86;23.92
14117;BME280;7137;51.436;6.544;2022-08-21T09:20:48;101256.44;;;35.32;28.42
14117;BME280;7137;51.436;6.544;2022-08-21T09:24:00;101251.84;;;33.21;31.48
14117;BME280;7137;51.436;6.544;2022-08-21T09:27:06;101256.41;;;36.84;27.47
14117;BME280;7137;51.436;6.544;2022-08-21T09:30:10;101251.81;;;35.54;28.75
14117;BME280;7137;51.436;6.544;2022-08-21T09:33:13;101251.00;;;38.15;25.04
14117;BME280;7137;51.436;6.544;2022-08-21T09:36:24;101258.06;;;39.55;23.19
14117;BME280;7137;51.436;6.544;2022-08-21T09:39:28;101247.81;;;36.94;25.87
14117;BME280;7137;51.436;6.544;2022-08-21T09:42:31;101250.84;;;35.13;28.74
14117;BME280;7137;51.436;6.544;2022-08-21T09:45:33;101254.16;;;37.34;24.90
14117;BME280;7137;51.436;6.544;2022-08-21T09:48:43;101243.75;;;34.03;27.32
14117;BME280;7137;51.436;6.544;2022-08-21T09:51:50;101248.63;;;34.59;29.22
14117;BME280;7137;51.436;6.544;2022-08-21T09:54:55;101244.03;;;36.20;26.80
14117;BME280;7137;51.436;6.544;2022-08-21T09:57:57;101241.72;;;34.56;27.80
14117;BME280;7137;51.436;6.544;2022-08-21T10:01:00;101244.59;;;33.89;29.29
14117;BME280;7137;51.436;6.544;2022-08-21T10:04:04;101235.78;;;34.89;28.53
14117;BME280;7137;51.436;6.544;2022-08-21T10:07:07;101232.53;;;35.21;27.68
14117;BME280;7137;51.436;6.544;2022-08-21T10:10:14;101236.53;;;34.61;29.16
14117;BME280;7137;51.436;6.544;2022-08-21T10:13:21;101234.31;;;33.70;30.24
14117;BME280;7137;51.436;6.544;2022-08-21T10:16:38;101228.06;;;31.05;33.76
14117;BME280;7137;51.436;6.544;2022-08-21T10:19:49;101224.81;;;30.68;34.37
14117;BME280;7137;51.436;6.544;2022-08-21T10:23:06;101229.41;;;28.78;37.39
14117;BME280;7137;51.436;6.544;2022-08-21T10:26:20;101224.13;;;28.86;38.36
14117;BME280;7137;51.436;6.544;2022-08-21T10:29:39;101214.50;;;28.84;38.49
14117;BME280;7137;51.436;6.544;2022-08-21T10:33:01;101220.88;;;28.83;37.21
14117;BME280;7137;51.436;6.544;2022-08-21T10:36:11;101221.25;;;28.52;38.76
14117;BME280;7137;51.436;6.544;2022-08-21T10:39:19;101210.34;;;27.99;39.17
14117;BME280;7137;51.436;6.544;2022-08-21T10:42:32;101210.13;;;28.65;38.38
14117;BME280;7137;51.436;6.544;2022-08-21T10:45:45;101211.66;;;28.22;37.86
14117;BME280;7137;51.436;6.544;2022-08-21T10:48:54;101218.81;;;28.77;39.25
14117;BME280;7137;51.436;6.544;2022-08-21T10:52:14;101215.31;;;28.03;38.32
14117;BME280;7137;51.436;6.544;2022-08-21T10:55:23;101214.25;;;28.87;38.84
14117;BME280;7137;51.436;6.544;2022-08-21T10:58:29;101214.69;;;29.26;37.70
14117;BME280;7137;51.436;6.544;2022-08-21T11:01:38;101220.72;;;27.47;39.84
14117;BME280;7137;51.436;6.544;2022-08-21T11:04:52;101216.81;;;26.93;41.70
14117;BME280;7137;51.436;6.544;2022-08-21T11:08:02;101212.09;;;27.43;41.10
14117;BME280;7137;51.436;6.544;2022-08-21T11:11:08;101220.66;;;27.57;40.95
14117;BME280;7137;51.436;6.544;2022-08-21T11:14:20;101209.09;;;27.66;40.54
14117;BME280;7137;51.436;6.544;2022-08-21T11:17:29;101210.28;;;27.91;39.53
14117;BME280;7137;51.436;6.544;2022-08-21T11:20:36;101210.47;;;27.79;40.18
14117;BME280;7137;51.436;6.544;2022-08-21T11:23:45;101210.94;;;28.30;39.54
14117;BME280;7137;51.436;6.544;2022-08-21T11:26:52;101210.28;;;28.81;38.26
14117;BME280;7137;51.436;6.544;2022-08-21T11:29:57;101201.06;;;29.27;37.18
14117;BME280;7137;51.436;6.544;2022-08-21T11:33:14;101203.31;;;28.88;36.77
14117;BME280;7137;51.436;6.544;2022-08-21T11:36:26;101208.44;;;29.43;36.16
14117;BME280;7137;51.436;6.544;2022-08-21T11:39:38;101198.03;;;29.22;36.84
14117;BME280;7137;51.436;6.544;2022-08-21T11:42:47;101197.97;;;28.79;36.69
14117;BME280;7137;51.436;6.544;2022-08-21T11:45:53;101200.38;;;28.46;37.31
14117;BME280;7137;51.436;6.544;2022-08-21T11:49:06;101205.69;;;28.01;38.85
14117;BME280;7137;51.436;6.544;2022-08-21T11:52:15;101194.56;;;27.49;38.84
14117;BME280;7137;51.436;6.544;2022-08-21T11:55:23;101208.66;;;27.61;39.19
14117;BME280;7137;51.436;6.544;2022-08-21T11:58:30;101199.19;;;27.66;39.63
14117;BME280;7137;51.436;6.544;2022-08-21T12:01:36;101202.88;;;27.65;40.20
14117;BME280;7137;51.436;6.544;2022-08-21T12:04:47;101198.34;;;27.75;39.91
14117;BME280;7137;51.436;6.544;2022-08-21T12:08:01;101188.84;;;27.71;41.24
14117;BME280;7137;51.436;6.544;2022-08-21T12:11:07;101196.88;;;27.81;40.73
14117;BME280;7137;51.436;6.544;2022-08-21T12:14:13;101197.88;;;27.80;39.82
14117;BME280;7137;51.436;6.544;2022-08-21T12:17:18;101190.97;;;28.05;40.10
14117;BME280;7137;51.436;6.544;2022-08-21T12:20:26;101196.53;;;28.49;38.00
14117;BME280;7137;51.436;6.544;2022-08-21T12:23:43;101183.09;;;27.57;39.25
14117;BME280;7137;51.436;6.544;2022-08-21T12:26:52;101191.38;;;27.73;41.04
14117;BME280;7137;51.436;6.544;2022-08-21T12:29:55;101193.16;;;28.19;40.44
14117;BME280;7137;51.436;6.544;2022-08-21T12:33:00;101188.41;;;28.58;39.01
14117;BME280;7137;51.436;6.544;2022-08-21T12:36:06;101187.75;;;28.82;38.04
14117;BME280;7137;51.436;6.544;2022-08-21T12:39:13;101191.38;;;28.73;38.48
14117;BME280;7137;51.436;6.544;2022-08-21T12:42:19;101183.13;;;29.10;37.78
14117;BME280;7137;51.436;6.544;2022-08-21T12:45:28;101190.59;;;28.81;37.62
14117;BME280;7137;51.436;6.544;2022-08-21T12:48:33;101186.38;;;28.96;36.46
14117;BME280;7137;51.436;6.544;2022-08-21T12:51:47;101185.59;;;28.05;38.77
14117;BME280;7137;51.436;6.544;2022-08-21T12:54:50;101187.53;;;27.29;41.38
14117;BME280;7137;51.436;6.544;2022-08-21T12:57:53;101179.94;;;27.14;41.04
14117;BME280;7137;51.436;6.544;2022-08-21T13:00:58;101184.84;;;27.85;39.85
14117;BME280;7137;51.436;6.544;2022-08-21T13:04:07;101184.13;;;28.56;38.87
14117;BME280;7137;51.436;6.544;2022-08-21T13:07:12;101198.09;;;29.13;37.99
14117;BME280;7137;51.436;6.544;2022-08-21T13:10:18;101193.72;;;29.30;37.56
14117;BME280;7137;51.436;6.544;2022-08-21T13:13:24;101182.38;;;28.47;37.17
14117;BME280;7137;51.436;6.544;2022-08-21T13:16:28;101183.59;;;28.07;39.27
14117;BME280;7137;51.436;6.544;2022-08-21T13:19:31;101186.25;;;28.17;38.97
14117;BME280;7137;51.436;6.544;2022-08-21T13:22:40;101172.25;;;27.48;39.96
14117;BME280;7137;51.436;6.544;2022-08-21T13:25:42;101167.38;;;27.99;40.11
14117;BME280;7137;51.436;6.544;2022-08-21T13:28:45;101164.53;;;28.28;40.38
14117;BME280;7137;51.436;6.544;2022-08-21T13:31:51;101168.63;;;28.32;38.05
14117;BME280;7137;51.436;6.544;2022-08-21T13:34:55;101164.09;;;28.50;39.05
14117;BME280;7137;51.436;6.544;2022-08-21T13:37:58;101163.41;;;27.75;38.32
14117;BME280;7137;51.436;6.544;2022-08-21T13:41:03;101165.44;;;27.54;39.76
14117;BME280;7137;51.436;6.544;2022-08-21T13:44:17;101163.69;;;27.72;39.13
14117;BME280;7137;51.436;6.544;2022-08-21T13:47:19;101166.03;;;27.85;39.08
14117;BME280;7137;51.436;6.544;2022-08-21T13:50:22;101162.38;;;27.49;39.25
14117;BME280;7137;51.436;6.544;2022-08-21T13:53:29;101163.31;;;27.01;40.32
14117;BME280;7137;51.436;6.544;2022-08-21T13:56:33;101164.84;;;27.23;39.95
14117;BME280;7137;51.436;6.544;2022-08-21T13:59:43;101166.38;;;27.72;41.10
14117;BME280;7137;51.436;6.544;2022-08-21T14:02:47;101168.50;;;28.24;38.93
14117;BME280;7137;51.436;6.544;2022-08-21T14:05:50;101172.16;;;27.77;38.46
14117;BME280;7137;51.436;6.544;2022-08-21T14:08:54;101178.38;;;28.86;37.45
14117;BME280;7137;51.436;6.544;2022-08-21T14:12:01;101173.13;;;29.20;37.73
14117;BME280;7137;51.436;6.544;2022-08-21T14:15:06;101168.38;;;29.14;37.14
14117;BME280;7137;51.436;6.544;2022-08-21T14:18:13;101177.84;;;29.78;33.92
14117;BME280;7137;51.436;6.544;2022-08-21T14:21:27;101167.56;;;30.16;33.35
14117;BME280;7137;51.436;6.544;2022-08-21T14:24:30;101170.09;;;29.83;34.76
14117;BME280;7137;51.436;6.544;2022-08-21T14:27:32;101165.31;;;30.03;34.64
14117;BME280;7137;51.436;6.544;2022-08-21T14:30:37;101159.72;;;29.29;36.27
14117;BME280;7137;51.436;6.544;2022-08-21T14:33:39;101160.06;;;29.34;33.42
14117;BME280;7137;51.436;6.544;2022-08-21T14:36:41;101163.66;;;29.16;36.14
14117;BME280;7137;51.436;6.544;2022-08-21T14:39:42;101158.88;;;28.31;37.73
14117;BME280;7137;51.436;6.544;2022-08-21T14:42:45;101153.44;;;28.13;37.68
14117;BME280;7137;51.436;6.544;2022-08-21T14:45:48;101154.59;;;28.10;37.01
14117;BME280;7137;51.436;6.544;2022-08-21T14:48:50;101143.94;;;27.73;36.99
14117;BME280;7137;51.436;6.544;2022-08-21T14:51:51;101142.13;;;27.55;37.49
14117;BME280;7137;51.436;6.544;2022-08-21T14:54:57;101143.97;;;27.54;37.36
14117;BME280;7137;51.436;6.544;2022-08-21T14:58:00;101140.28;;;27.92;36.89
14117;BME280;7137;51.436;6.544;2022-08-21T15:01:04;101136.47;;;28.13;37.16
14117;BME280;7137;51.436;6.544;2022-08-21T15:04:06;101139.56;;;28.18;37.44
14117;BME280;7137;51.436;6.544;2022-08-21T15:07:07;101151.56;;;27.59;37.38
14117;BME280;7137;51.436;6.544;2022-08-21T15:10:09;101132.06;;;27.57;36.68
14117;BME280;7137;51.436;6.544;2022-08-21T15:13:10;101141.91;;;27.38;36.78
14117;BME280;7137;51.436;6.544;2022-08-21T15:16:13;101143.34;;;27.70;37.47
14117;BME280;7137;51.436;6.544;2022-08-21T15:19:14;101143.13;;;27.91;36.76
14117;BME280;7137;51.436;6.544;2022-08-21T15:22:16;101141.66;;;27.96;36.20
14117;BME280;7137;51.436;6.544;2022-08-21T15:25:17;101146.88;;;27.70;35.87
14117;BME280;7137;51.436;6.544;2022-08-21T15:28:19;101139.97;;;27.58;36.09
14117;BME280;7137;51.436;6.544;2022-08-21T15:31:22;101135.22;;;27.52;36.25
14117;BME280;7137;51.436;6.544;2022-08-21T15:34:27;101132.38;;;27.54;36.74
14117;BME280;7137;51.436;6.544;2022-08-21T15:37:29;101127.50;;;27.76;36.97
14117;BME280;7137;51.436;6.544;2022-08-21T15:40:30;101139.13;;;27.67;36.27
14117;BME280;7137;51.436;6.544;2022-08-21T15:43:40;101142.09;;;27.27;36.83
14117;BME280;7137;51.436;6.544;2022-08-21T15:46:44;101138.06;;;26.65;36.79
14117;BME280;7137;51.436;6.544;2022-08-21T15:49:45;101139.47;;;26.59;37.90
14117;BME280;7137;51.436;6.544;2022-08-21T15:52:47;101133.41;;;26.77;36.87
14117;BME280;7137;51.436;6.544;2022-08-21T15:55:49;101138.22;;;26.63;37.72
14117;BME280;7137;51.436;6.544;2022-08-21T15:59:00;101135.38;;;26.46;37.10
14117;BME280;7137;51.436;6.544;2022-08-21T16:02:03;101143.97;;;26.59;37.87
14117;BME280;7137;51.436;6.544;2022-08-21T16:05:06;101149.50;;;26.67;37.18
14117;BME280;7137;51.436;6.544;2022-08-21T16:08:10;101150.34;;;26.58;37.03
14117;BME280;7137;51.436;6.544;2022-08-21T16:11:13;101148.06;;;26.44;37.91
14117;BME280;7137;51.436;6.544;2022-08-21T16:14:16;101148.66;;;26.38;37.62
14117;BME280;7137;51.436;6.544;2022-08-21T16:17:21;101145.91;;;26.09;39.31
14117;BME280;7137;51.436;6.544;2022-08-21T16:20:27;101140.69;;;26.26;39.06